sensor_id;sensor_type;location;lat;lon;timestamp;temperature;humidity
13817;DHT22;6979;52.116;5.286;2022-10-16T00:01:30;16.90;99.90
13817;DHT22;6979;52.116;5.286;2022-10-16T00:03:58;16.90;99.90
13817;DHT22;6979;52.116;5.286;2022-10-16T00:06:26;16.90;99.90
13817;DHT22;6979;52.116;5.286;2022-10-16T00:08:54;16.90;99.90
13817;DHT22;6979;52.116;5.286;2022-10-16T00:11:23;16.90;99.90
13817;DHT22;6979;52.116;5.286;2022-10-16T00:13:54;16.90;99.90
13817;DHT22;6979;52.116;5.286;2022-10-16T00:16:21;16.90;99.90
13817;DHT22;6979;52.116;5.286;2022-10-16T00:18:49;16.90;99.90
13817;DHT22;6979;52.116;5.286;2022-10-16T00:21:18;16.80;99.90
13817;DHT22;6979;52.116;5.286;2022-10-16T00:23:51;16.90;99.90
13817;DHT22;6979;52.116;5.286;2022-10-16T00:26:19;16.80;99.90
13817;DHT22;6979;52.116;5.286;2022-10-16T00:28:47;16.80;99.90
13817;DHT22;6979;52.116;5.286;2022-10-16T00:31:14;16.80;99.90
13817;DHT22;6979;52.116;5.286;2022-10-16T00:33:41;16.80;99.90
13817;DHT22;6979;52.116;5.286;2022-10-16T00:36:12;16.80;99.90
13817;DHT22;6979;52.116;5.286;2022-10-16T00:38:40;16.80;99.90
13817;DHT22;6979;52.116;5.286;2022-10-16T00:41:09;16.80;99.90
13817;DHT22;6979;52.116;5.286;2022-10-16T00:43:39;16.80;99.90
13817;DHT22;6979;52.116;5.286;2022-10-16T00:46:13;16.80;99.90
13817;DHT22;6979;52.116;5.286;2022-10-16T00:48:43;16.80;99.90
13817;DHT22;6979;52.116;5.286;2022-10-16T00:51:14;16.80;99.90
13817;DHT22;6979;52.116;5.286;2022-10-16T00:53:41;16.80;99.90
13817;DHT22;6979;52.116;5.286;2022-10-16T00:56:08;16.80;99.90
13817;DHT22;6979;52.116;5.286;2022-10-16T00:58:34;16.80;99.90
13817;DHT22;6979;52.116;5.286;2022-10-16T01:01:02;16.90;99.90
13817;DHT22;6979;52.116;5.286;2022-10-16T01:03:31;16.90;99.90
13817;DHT22;6979;52.116;5.286;2022-10-16T01:06:17;16.90;99.90
13817;DHT22;6979;52.116;5.286;2022-10-16T01:08:57;16.90;99.90
13817;DHT22;6979;52.116;5.286;2022-10-16T01:11:32;16.90;99.90
13817;DHT22;6979;52.116;5.286;2022-10-16T01:14:04;17.00;99.90
13817;DHT22;6979;52.116;5.286;2022-10-16T01:16:36;17.00;99.90
13817;DHT22;6979;52.116;5.286;2022-10-16T01:19:11;17.00;99.90
13817;DHT22;6979;52.116;5.286;2022-10-16T01:21:43;17.00;99.90
13817;DHT22;6979;52.116;5.286;2022-10-16T01:24:17;17.00;99.90
13817;DHT22;6979;52.116;5.286;2022-10-16T01:27:12;17.00;99.90
13817;DHT22;6979;52.116;5.286;2022-10-16T01:29:45;17.10;99.90
13817;DHT22;6979;52.116;5.286;2022-10-16T01:32:17;17.10;99.90
13817;DHT22;6979;52.116;5.286;2022-10-16T01:34:49;17.20;99.90
13817;DHT22;6979;52.116;5.286;2022-10-16T01:37:28;17.20;99.90
13817;DHT22;6979;52.116;5.286;2022-10-16T01:40:00;17.20;99.90
13817;DHT22;6979;52.116;5.286;2022-10-16T01:42:34;17.20;99.90
13817;DHT22;6979;52.116;5.286;2022-10-16T01:45:02;17.20;99.90
13817;DHT22;6979;52.116;5.286;2022-10-16T01:47:32;17.20;99.90
13817;DHT22;6979;52.116;5.286;2022-10-16T01:50:03;17.30;99.90
13817;DHT22;6979;52.116;5.286;2022-10-16T01:52:33;17.30;99.90
13817;DHT22;6979;52.116;5.286;2022-10-16T01:55:05;17.30;99.90
13817;DHT22;6979;52.116;5.286;2022-10-16T01:57:37;17.30;99.90
13817;DHT22;6979;52.116;5.286;2022-10-16T02:00:11;17.30;99.90
13817;DHT22;6979;52.116;5.286;2022-10-16T02:02:43;17.30;99.90
13817;DHT22;6979;52.116;5.286;2022-10-16T02:05:16;17.30;99.90
13817;DHT22;6979;52.116;5.286;2022-10-16T02:07:44;17.40;99.90
13817;DHT22;6979;52.116;5.286;2022-10-16T02:10:11;17.40;99.90
13817;DHT22;6979;52.116;5.286;2022-10-16T02:12:42;17.40;99.90
13817;DHT22;6979;52.116;5.286;2022-10-16T02:15:10;17.40;99.90
13817;DHT22;6979;52.116;5.286;2022-10-16T02:17:37;17.30;99.90
13817;DHT22;6979;52.116;5.286;2022-10-16T02:20:07;17.30;99.90
13817;DHT22;6979;52.116;5.286;2022-10-16T02:22:37;17.30;99.90
13817;DHT22;6979;52.116;5.286;2022-10-16T02:25:10;17.30;99.90
13817;DHT22;6979;52.116;5.286;2022-10-16T02:27:45;17.30;99.90
13817;DHT22;6979;52.116;5.286;2022-10-16T02:30:16;17.30;99.90
13817;DHT22;6979;52.116;5.286;2022-10-16T02:32:46;17.30;99.90
13817;DHT22;6979;52.116;5.286;2022-10-16T02:35:15;17.30;99.90
13817;DHT22;6979;52.116;5.286;2022-10-16T02:37:44;17.30;99.90
13817;DHT22;6979;52.116;5.286;2022-10-16T02:40:12;17.30;99.90
13817;DHT22;6979;52.116;5.286;2022-10-16T02:42:40;17.20;99.90
13817;DHT22;6979;52.116;5.286;2022-10-16T02:45:10;17.20;99.90
13817;DHT22;6979;52.116;5.286;2022-10-16T02:47:37;17.20;99.90
13817;DHT22;6979;52.116;5.286;2022-10-16T02:50:05;17.20;99.90
13817;DHT22;6979;52.116;5.286;2022-10-16T02:52:32;17.20;99.90
13817;DHT22;6979;52.116;5.286;2022-10-16T02:54:58;17.20;99.90
13817;DHT22;6979;52.116;5.286;2022-10-16T02:57:25;17.20;99.90
13817;DHT22;6979;52.116;5.286;2022-10-16T02:59:52;17.20;99.90
13817;DHT22;6979;52.116;5.286;2022-10-16T03:02:21;17.20;99.90
13817;DHT22;6979;52.116;5.286;2022-10-16T03:04:47;17.20;99.90
13817;DHT22;6979;52.116;5.286;2022-10-16T03:07:14;17.20;99.90
13817;DHT22;6979;52.116;5.286;2022-10-16T03:09:41;17.20;99.90
13817;DHT22;6979;52.116;5.286;2022-10-16T03:12:08;17.20;99.90
13817;DHT22;6979;52.116;5.286;2022-10-16T03:14:37;17.20;99.90
13817;DHT22;6979;52.116;5.286;2022-10-16T03:17:05;17.20;99.90
13817;DHT22;6979;52.116;5.286;2022-10-16T03:19:33;17.20;99.90
13817;DHT22;6979;52.116;5.286;2022-10-16T03:22:01;17.20;99.90
13817;DHT22;6979;52.116;5.286;2022-10-16T03:24:31;17.10;99.90
13817;DHT22;6979;52.116;5.286;2022-10-16T03:27:05;17.10;99.90
13817;DHT22;6979;52.116;5.286;2022-10-16T03:29:32;17.10;99.90
13817;DHT22;6979;52.116;5.286;2022-10-16T03:32:02;17.10;99.90
13817;DHT22;6979;52.116;5.286;2022-10-16T03:34:28;17.10;99.90
13817;DHT22;6979;52.116;5.286;2022-10-16T03:36:57;17.10;99.90
13817;DHT22;6979;52.116;5.286;2022-10-16T03:39:24;17.10;99.90
13817;DHT22;6979;52.116;5.286;2022-10-16T03:41:51;17.10;99.90
13817;DHT22;6979;52.116;5.286;2022-10-16T03:44:20;17.10;99.90
13817;DHT22;6979;52.116;5.286;2022-10-16T03:46:50;17.10;99.90
13817;DHT22;6979;52.116;5.286;2022-10-16T03:49:17;17.10;99.90
13817;DHT22;6979;52.116;5.286;2022-10-16T03:51:44;17.10;99.90
13817;DHT22;6979;52.116;5.286;2022-10-16T03:54:12;17.00;99.90
13817;DHT22;6979;52.116;5.286;2022-10-16T03:56:39;17.00;99.90
13817;DHT22;6979;52.116;5.286;2022-10-16T03:59:15;17.00;99.90
13817;DHT22;6979;52.116;5.286;2022-10-16T04:01:43;17.00;99.90
13817;DHT22;6979;52.116;5.286;2022-10-16T04:04:09;17.00;99.90
13817;DHT22;6979;52.116;5.286;2022-10-16T04:12:00;17.00;99.90
13817;DHT22;6979;52.116;5.286;2022-10-16T04:14:29;16.90;99.90
13817;DHT22;6979;52.116;5.286;2022-10-16T04:16:56;16.90;99.90
13817;DHT22;6979;52.116;5.286;2022-10-16T04:19:23;16.90;99.90
13817;DHT22;6979;52.116;5.286;2022-10-16T04:21:50;16.90;99.90
13817;DHT22;6979;52.116;5.286;2022-10-16T04:24:19;16.90;99.90
13817;DHT22;6979;52.116;5.286;2022-10-16T04:26:46;16.90;99.90
13817;DHT22;6979;52.116;5.286;2022-10-16T04:29:14;16.90;99.90
13817;DHT22;6979;52.116;5.286;2022-10-16T04:31:41;16.90;99.90
13817;DHT22;6979;52.116;5.286;2022-10-16T04:34:07;16.80;99.90
13817;DHT22;6979;52.116;5.286;2022-10-16T04:36:34;16.80;99.90
13817;DHT22;6979;52.116;5.286;2022-10-16T04:39:01;16.80;99.90
13817;DHT22;6979;52.116;5.286;2022-10-16T04:41:28;16.90;99.90
13817;DHT22;6979;52.116;5.286;2022-10-16T04:43:55;16.80;99.90
13817;DHT22;6979;52.116;5.286;2022-10-16T04:46:23;16.90;99.90
13817;DHT22;6979;52.116;5.286;2022-10-16T04:48:50;16.90;99.90
13817;DHT22;6979;52.116;5.286;2022-10-16T04:51:17;16.80;99.90
13817;DHT22;6979;52.116;5.286;2022-10-16T04:53:44;16.80;99.90
13817;DHT22;6979;52.116;5.286;2022-10-16T04:56:11;16.90;99.90
13817;DHT22;6979;52.116;5.286;2022-10-16T04:58:43;16.80;99.90
13817;DHT22;6979;52.116;5.286;2022-10-16T05:01:13;16.80;99.90
13817;DHT22;6979;52.116;5.286;2022-10-16T05:03:41;16.80;99.90
13817;DHT22;6979;52.116;5.286;2022-10-16T05:06:11;16.80;99.90
13817;DHT22;6979;52.116;5.286;2022-10-16T05:08:37;16.80;99.90
13817;DHT22;6979;52.116;5.286;2022-10-16T05:11:04;16.80;99.90
13817;DHT22;6979;52.116;5.286;2022-10-16T05:13:31;16.80;99.90
13817;DHT22;6979;52.116;5.286;2022-10-16T05:15:58;16.80;99.90
13817;DHT22;6979;52.116;5.286;2022-10-16T05:18:25;16.80;99.90
13817;DHT22;6979;52.116;5.286;2022-10-16T05:20:53;16.70;99.90
13817;DHT22;6979;52.116;5.286;2022-10-16T05:23:22;16.70;99.90
13817;DHT22;6979;52.116;5.286;2022-10-16T05:25:53;16.70;99.90
13817;DHT22;6979;52.116;5.286;2022-10-16T05:28:24;16.70;99.90
13817;DHT22;6979;52.116;5.286;2022-10-16T05:30:51;16.70;99.90
13817;DHT22;6979;52.116;5.286;2022-10-16T05:33:19;16.60;99.90
13817;DHT22;6979;52.116;5.286;2022-10-16T05:35:46;16.60;99.90
13817;DHT22;6979;52.116;5.286;2022-10-16T05:38:14;16.60;99.90
13817;DHT22;6979;52.116;5.286;2022-10-16T05:40:41;16.60;99.90
13817;DHT22;6979;52.116;5.286;2022-10-16T05:43:08;16.60;99.90
13817;DHT22;6979;52.116;5.286;2022-10-16T05:45:40;16.60;99.90
13817;DHT22;6979;52.116;5.286;2022-10-16T05:48:07;16.60;99.90
13817;DHT22;6979;52.116;5.286;2022-10-16T05:50:34;16.70;99.90
13817;DHT22;6979;52.116;5.286;2022-10-16T05:53:01;16.60;99.90
13817;DHT22;6979;52.116;5.286;2022-10-16T05:55:29;16.60;99.90
13817;DHT22;6979;52.116;5.286;2022-10-16T05:57:59;16.60;99.90
13817;DHT22;6979;52.116;5.286;2022-10-16T06:00:25;16.70;99.90
13817;DHT22;6979;52.116;5.286;2022-10-16T06:02:55;16.60;99.90
13817;DHT22;6979;52.116;5.286;2022-10-16T06:05:22;16.70;99.90
13817;DHT22;6979;52.116;5.286;2022-10-16T06:07:49;16.70;99.90
13817;DHT22;6979;52.116;5.286;2022-10-16T06:10:16;16.70;99.90
13817;DHT22;6979;52.116;5.286;2022-10-16T06:12:44;16.70;99.90
13817;DHT22;6979;52.116;5.286;2022-10-16T06:15:11;16.70;99.90
13817;DHT22;6979;52.116;5.286;2022-10-16T06:17:38;16.70;99.90
13817;DHT22;6979;52.116;5.286;2022-10-16T06:20:05;16.80;99.90
13817;DHT22;6979;52.116;5.286;2022-10-16T06:22:32;16.80;99.90
13817;DHT22;6979;52.116;5.286;2022-10-16T06:24:59;16.80;99.90
13817;DHT22;6979;52.116;5.286;2022-10-16T06:27:26;16.80;99.90
13817;DHT22;6979;52.116;5.286;2022-10-16T06:29:54;16.80;99.90
13817;DHT22;6979;52.116;5.286;2022-10-16T06:32:21;16.90;99.90
13817;DHT22;6979;52.116;5.286;2022-10-16T06:34:48;16.90;99.90
13817;DHT22;6979;52.116;5.286;2022-10-16T06:37:14;16.90;99.90
13817;DHT22;6979;52.116;5.286;2022-10-16T06:39:41;16.90;99.90
13817;DHT22;6979;52.116;5.286;2022-10-16T06:42:08;16.80;99.90
13817;DHT22;6979;52.116;5.286;2022-10-16T06:44:35;16.80;99.90
13817;DHT22;6979;52.116;5.286;2022-10-16T06:47:03;16.80;99.90
13817;DHT22;6979;52.116;5.286;2022-10-16T06:49:30;16.80;99.90
13817;DHT22;6979;52.116;5.286;2022-10-16T06:51:57;16.80;99.90
13817;DHT22;6979;52.116;5.286;2022-10-16T06:54:23;16.80;99.90
13817;DHT22;6979;52.116;5.286;2022-10-16T06:56:51;16.80;99.90
13817;DHT22;6979;52.116;5.286;2022-10-16T06:59:19;16.80;99.90
13817;DHT22;6979;52.116;5.286;2022-10-16T07:01:46;16.70;99.90
13817;DHT22;6979;52.116;5.286;2022-10-16T07:04:14;16.70;99.90
13817;DHT22;6979;52.116;5.286;2022-10-16T07:06:41;16.70;99.90
13817;DHT22;6979;52.116;5.286;2022-10-16T07:09:09;16.70;99.90
13817;DHT22;6979;52.116;5.286;2022-10-16T07:11:37;16.70;99.90
13817;DHT22;6979;52.116;5.286;2022-10-16T07:14:08;16.70;99.90
13817;DHT22;6979;52.116;5.286;2022-10-16T07:16:39;16.70;99.90
13817;DHT22;6979;52.116;5.286;2022-10-16T07:19:05;16.80;99.90
13817;DHT22;6979;52.116;5.286;2022-10-16T07:21:34;16.80;99.90
13817;DHT22;6979;52.116;5.286;2022-10-16T07:24:02;16.80;99.90
13817;DHT22;6979;52.116;5.286;2022-10-16T07:26:31;16.80;99.90
13817;DHT22;6979;52.116;5.286;2022-10-16T07:28:59;16.90;99.90
13817;DHT22;6979;52.116;5.286;2022-10-16T07:31:26;16.90;99.90
13817;DHT22;6979;52.116;5.286;2022-10-16T07:33:54;16.90;99.90
13817;DHT22;6979;52.116;5.286;2022-10-16T07:36:21;17.00;99.90
13817;DHT22;6979;52.116;5.286;2022-10-16T07:38:49;17.00;99.90
13817;DHT22;6979;52.116;5.286;2022-10-16T07:41:18;17.00;99.90
13817;DHT22;6979;52.116;5.286;2022-10-16T07:43:46;17.00;99.90
13817;DHT22;6979;52.116;5.286;2022-10-16T07:46:13;17.10;99.90
13817;DHT22;6979;52.116;5.286;2022-10-16T07:48:40;17.10;99.90
13817;DHT22;6979;52.116;5.286;2022-10-16T07:51:11;17.20;99.90
13817;DHT22;6979;52.116;5.286;2022-10-16T07:53:38;17.20;99.90
13817;DHT22;6979;52.116;5.286;2022-10-16T07:56:07;17.20;99.90
13817;DHT22;6979;52.116;5.286;2022-10-16T07:58:35;17.30;99.90
13817;DHT22;6979;52.116;5.286;2022-10-16T08:01:04;17.30;99.90
13817;DHT22;6979;52.116;5.286;2022-10-16T08:03:31;17.30;99.90
13817;DHT22;6979;52.116;5.286;2022-10-16T08:05:59;17.30;99.90
13817;DHT22;6979;52.116;5.286;2022-10-16T08:08:26;17.30;99.90
13817;DHT22;6979;52.116;5.286;2022-10-16T08:10:54;17.40;99.90
13817;DHT22;6979;52.116;5.286;2022-10-16T08:13:22;17.40;99.90
13817;DHT22;6979;52.116;5.286;2022-10-16T08:15:53;17.40;99.90
13817;DHT22;6979;52.116;5.286;2022-10-16T08:18:21;17.50;99.90
13817;DHT22;6979;52.116;5.286;2022-10-16T08:20:48;17.50;99.90
13817;DHT22;6979;52.116;5.286;2022-10-16T08:23:23;17.60;99.90
13817;DHT22;6979;52.116;5.286;2022-10-16T08:25:51;17.60;99.90
13817;DHT22;6979;52.116;5.286;2022-10-16T08:28:19;17.70;99.90
13817;DHT22;6979;52.116;5.286;2022-10-16T08:30:47;17.70;99.90
13817;DHT22;6979;52.116;5.286;2022-10-16T08:33:15;17.80;99.90
13817;DHT22;6979;52.116;5.286;2022-10-16T08:35:50;17.80;99.90
13817;DHT22;6979;52.116;5.286;2022-10-16T08:38:18;17.90;99.90
13817;DHT22;6979;52.116;5.286;2022-10-16T08:40:45;18.00;99.90
13817;DHT22;6979;52.116;5.286;2022-10-16T08:43:30;18.00;99.90
13817;DHT22;6979;52.116;5.286;2022-10-16T08:46:17;18.10;99.90
13817;DHT22;6979;52.116;5.286;2022-10-16T08:48:48;18.10;99.90
13817;DHT22;6979;52.116;5.286;2022-10-16T08:51:19;18.20;99.90
13817;DHT22;6979;52.116;5.286;2022-10-16T08:53:50;18.20;99.90
13817;DHT22;6979;52.116;5.286;2022-10-16T08:56:18;18.30;99.90
13817;DHT22;6979;52.116;5.286;2022-10-16T08:58:46;18.40;99.90
13817;DHT22;6979;52.116;5.286;2022-10-16T09:01:16;18.50;99.90
13817;DHT22;6979;52.116;5.286;2022-10-16T09:04:04;18.50;99.90
13817;DHT22;6979;52.116;5.286;2022-10-16T09:06:52;18.70;99.90
13817;DHT22;6979;52.116;5.286;2022-10-16T09:09:40;18.90;99.90
13817;DHT22;6979;52.116;5.286;2022-10-16T09:12:14;19.30;99.90
13817;DHT22;6979;52.116;5.286;2022-10-16T09:14:52;19.80;99.90
13817;DHT22;6979;52.116;5.286;2022-10-16T09:17:30;20.30;99.90
13817;DHT22;6979;52.116;5.286;2022-10-16T09:20:13;20.80;99.90
13817;DHT22;6979;52.116;5.286;2022-10-16T09:22:47;21.40;99.90
13817;DHT22;6979;52.116;5.286;2022-10-16T09:25:16;21.90;99.90
13817;DHT22;6979;52.116;5.286;2022-10-16T09:27:46;22.30;99.90
13817;DHT22;6979;52.116;5.286;2022-10-16T09:30:40;22.60;99.90
13817;DHT22;6979;52.116;5.286;2022-10-16T09:45:21;24.50;99.90
13817;DHT22;6979;52.116;5.286;2022-10-16T09:51:02;25.00;99.90
13817;DHT22;6979;52.116;5.286;2022-10-16T09:57:50;25.30;99.90
13817;DHT22;6979;52.116;5.286;2022-10-16T10:03:10;25.50;99.90
13817;DHT22;6979;52.116;5.286;2022-10-16T10:17:18;26.10;99.90
13817;DHT22;6979;52.116;5.286;2022-10-16T10:19:51;26.10;99.90
13817;DHT22;6979;52.116;5.286;2022-10-16T10:22:31;26.00;99.90
13817;DHT22;6979;52.116;5.286;2022-10-16T10:25:14;25.80;99.90
13817;DHT22;6979;52.116;5.286;2022-10-16T10:31:30;25.30;99.90
13817;DHT22;6979;52.116;5.286;2022-10-16T10:34:24;25.10;99.90
13817;DHT22;6979;52.116;5.286;2022-10-16T10:37:02;25.00;99.90
13817;DHT22;6979;52.116;5.286;2022-10-16T10:39:37;24.90;99.90
13817;DHT22;6979;52.116;5.286;2022-10-16T10:42:18;24.70;99.90
13817;DHT22;6979;52.116;5.286;2022-10-16T10:45:03;24.50;99.90
13817;DHT22;6979;52.116;5.286;2022-10-16T10:47:46;24.20;99.90
13817;DHT22;6979;52.116;5.286;2022-10-16T10:50:22;23.90;99.90
13817;DHT22;6979;52.116;5.286;2022-10-16T10:52:58;23.80;99.90
13817;DHT22;6979;52.116;5.286;2022-10-16T10:55:33;23.70;99.90
13817;DHT22;6979;52.116;5.286;2022-10-16T10:58:31;23.80;99.90
13817;DHT22;6979;52.116;5.286;2022-10-16T11:01:08;23.80;99.90
13817;DHT22;6979;52.116;5.286;2022-10-16T11:03:46;23.90;99.90
13817;DHT22;6979;52.116;5.286;2022-10-16T11:06:24;23.90;99.90
13817;DHT22;6979;52.116;5.286;2022-10-16T11:08:57;24.00;99.90
13817;DHT22;6979;52.116;5.286;2022-10-16T11:11:32;24.20;99.90
13817;DHT22;6979;52.116;5.286;2022-10-16T12:12:26;24.00;97.60
13817;DHT22;6979;52.116;5.286;2022-10-16T12:15:01;24.10;99.90
13817;DHT22;6979;52.116;5.286;2022-10-16T12:17:35;24.10;99.70
13817;DHT22;6979;52.116;5.286;2022-10-16T12:20:20;24.20;99.90
13817;DHT22;6979;52.116;5.286;2022-10-16T12:22:50;24.20;99.90
13817;DHT22;6979;52.116;5.286;2022-10-16T12:25:26;24.40;99.10
13817;DHT22;6979;52.116;5.286;2022-10-16T12:31:09;24.60;97.60
13817;DHT22;6979;52.116;5.286;2022-10-16T12:33:39;24.70;98.90
13817;DHT22;6979;52.116;5.286;2022-10-16T12:36:12;24.60;99.80
13817;DHT22;6979;52.116;5.286;2022-10-16T12:38:47;24.70;98.80
13817;DHT22;6979;52.116;5.286;2022-10-16T12:41:24;24.70;99.80
13817;DHT22;6979;52.116;5.286;2022-10-16T12:43:53;24.80;99.90
13817;DHT22;6979;52.116;5.286;2022-10-16T12:46:35;24.80;99.90
13817;DHT22;6979;52.116;5.286;2022-10-16T12:49:29;24.90;99.90
13817;DHT22;6979;52.116;5.286;2022-10-16T12:51:58;25.00;97.70
13817;DHT22;6979;52.116;5.286;2022-10-16T12:54:28;25.10;99.00
13817;DHT22;6979;52.116;5.286;2022-10-16T12:57:09;25.20;97.30
13817;DHT22;6979;52.116;5.286;2022-10-16T12:59:53;25.20;96.00
13817;DHT22;6979;52.116;5.286;2022-10-16T13:05:42;25.30;95.60
13817;DHT22;6979;52.116;5.286;2022-10-16T13:08:22;25.20;94.70
13817;DHT22;6979;52.116;5.286;2022-10-16T13:11:00;25.20;93.70
13817;DHT22;6979;52.116;5.286;2022-10-16T13:13:53;25.10;93.50
13817;DHT22;6979;52.116;5.286;2022-10-16T13:16:31;25.00;94.70
13817;DHT22;6979;52.116;5.286;2022-10-16T13:19:10;24.90;94.30
13817;DHT22;6979;52.116;5.286;2022-10-16T13:21:44;24.90;95.20
13817;DHT22;6979;52.116;5.286;2022-10-16T13:24:21;24.90;95.00
13817;DHT22;6979;52.116;5.286;2022-10-16T13:26:56;24.80;94.90
13817;DHT22;6979;52.116;5.286;2022-10-16T13:29:23;24.80;96.40
13817;DHT22;6979;52.116;5.286;2022-10-16T13:31:52;24.70;94.30
13817;DHT22;6979;52.116;5.286;2022-10-16T13:34:21;24.70;95.10
13817;DHT22;6979;52.116;5.286;2022-10-16T13:36:50;24.70;94.10
13817;DHT22;6979;52.116;5.286;2022-10-16T13:39:22;24.60;93.90
13817;DHT22;6979;52.116;5.286;2022-10-16T13:42:02;24.60;95.10
13817;DHT22;6979;52.116;5.286;2022-10-16T13:44:35;24.60;93.40
13817;DHT22;6979;52.116;5.286;2022-10-16T13:47:15;24.50;94.70
13817;DHT22;6979;52.116;5.286;2022-10-16T13:49:42;24.40;95.20
13817;DHT22;6979;52.116;5.286;2022-10-16T13:52:17;24.40;96.10
13817;DHT22;6979;52.116;5.286;2022-10-16T13:54:44;24.40;95.10
13817;DHT22;6979;52.116;5.286;2022-10-16T13:57:13;24.40;95.90
13817;DHT22;6979;52.116;5.286;2022-10-16T13:59:40;24.40;96.40
13817;DHT22;6979;52.116;5.286;2022-10-16T14:02:18;24.30;96.50
13817;DHT22;6979;52.116;5.286;2022-10-16T14:04:46;24.30;96.30
13817;DHT22;6979;52.116;5.286;2022-10-16T14:07:17;24.30;97.50
13817;DHT22;6979;52.116;5.286;2022-10-16T14:09:48;24.20;97.60
13817;DHT22;6979;52.116;5.286;2022-10-16T14:12:16;24.20;97.90
13817;DHT22;6979;52.116;5.286;2022-10-16T14:14:44;24.10;98.80
13817;DHT22;6979;52.116;5.286;2022-10-16T14:17:19;24.10;99.10
13817;DHT22;6979;52.116;5.286;2022-10-16T14:19:47;24.00;98.70
13817;DHT22;6979;52.116;5.286;2022-10-16T14:22:26;24.00;98.50
13817;DHT22;6979;52.116;5.286;2022-10-16T14:24:54;23.90;98.90
13817;DHT22;6979;52.116;5.286;2022-10-16T14:27:27;23.90;99.90
13817;DHT22;6979;52.116;5.286;2022-10-16T14:30:09;23.80;99.00
13817;DHT22;6979;52.116;5.286;2022-10-16T14:32:40;23.70;99.50
13817;DHT22;6979;52.116;5.286;2022-10-16T14:35:22;23.70;99.90
13817;DHT22;6979;52.116;5.286;2022-10-16T14:37:52;23.50;99.90
13817;DHT22;6979;52.116;5.286;2022-10-16T14:40:21;23.50;99.90
13817;DHT22;6979;52.116;5.286;2022-10-16T14:42:49;23.50;99.90
13817;DHT22;6979;52.116;5.286;2022-10-16T14:45:20;23.50;99.90
13817;DHT22;6979;52.116;5.286;2022-10-16T14:47:50;23.40;99.90
13817;DHT22;6979;52.116;5.286;2022-10-16T14:50:18;23.40;99.90
13817;DHT22;6979;52.116;5.286;2022-10-16T14:52:45;23.40;99.90
13817;DHT22;6979;52.116;5.286;2022-10-16T14:55:12;23.40;99.90
13817;DHT22;6979;52.116;5.286;2022-10-16T14:57:39;23.40;99.90
13817;DHT22;6979;52.116;5.286;2022-10-16T15:00:15;23.40;99.90
13817;DHT22;6979;52.116;5.286;2022-10-16T15:02:45;23.40;99.90
13817;DHT22;6979;52.116;5.286;2022-10-16T15:05:16;23.40;99.90
13817;DHT22;6979;52.116;5.286;2022-10-16T15:07:43;23.40;99.90
13817;DHT22;6979;52.116;5.286;2022-10-16T15:10:11;23.50;99.90
13817;DHT22;6979;52.116;5.286;2022-10-16T15:12:38;23.50;99.90
13817;DHT22;6979;52.116;5.286;2022-10-16T15:15:24;23.50;99.90
13817;DHT22;6979;52.116;5.286;2022-10-16T15:17:52;23.40;99.90
13817;DHT22;6979;52.116;5.286;2022-10-16T15:20:23;23.40;99.90
13817;DHT22;6979;52.116;5.286;2022-10-16T15:22:50;23.40;99.90
13817;DHT22;6979;52.116;5.286;2022-10-16T15:25:27;23.30;99.90
13817;DHT22;6979;52.116;5.286;2022-10-16T15:27:55;23.30;99.90
13817;DHT22;6979;52.116;5.286;2022-10-16T15:30:22;23.30;99.90
13817;DHT22;6979;52.116;5.286;2022-10-16T15:32:49;23.30;99.90
13817;DHT22;6979;52.116;5.286;2022-10-16T15:35:16;23.20;99.90
13817;DHT22;6979;52.116;5.286;2022-10-16T15:37:46;23.20;99.90
13817;DHT22;6979;52.116;5.286;2022-10-16T15:40:12;23.20;99.90
13817;DHT22;6979;52.116;5.286;2022-10-16T15:42:39;23.20;99.90
13817;DHT22;6979;52.116;5.286;2022-10-16T15:45:07;23.20;99.90
13817;DHT22;6979;52.116;5.286;2022-10-16T15:47:35;23.20;99.90
13817;DHT22;6979;52.116;5.286;2022-10-16T15:50:02;23.20;99.90
13817;DHT22;6979;52.116;5.286;2022-10-16T15:52:29;23.20;99.90
13817;DHT22;6979;52.116;5.286;2022-10-16T15:54:58;23.20;99.90
13817;DHT22;6979;52.116;5.286;2022-10-16T15:57:27;23.10;99.90
13817;DHT22;6979;52.116;5.286;2022-10-16T15:59:54;23.10;99.90
13817;DHT22;6979;52.116;5.286;2022-10-16T16:02:21;23.10;99.90
13817;DHT22;6979;52.116;5.286;2022-10-16T16:04:48;23.10;99.90
13817;DHT22;6979;52.116;5.286;2022-10-16T16:07:15;23.00;99.90
13817;DHT22;6979;52.116;5.286;2022-10-16T16:09:42;23.00;99.90
13817;DHT22;6979;52.116;5.286;2022-10-16T16:12:14;23.00;99.90
13817;DHT22;6979;52.116;5.286;2022-10-16T16:14:41;22.90;99.90
13817;DHT22;6979;52.116;5.286;2022-10-16T16:17:11;22.90;99.90
13817;DHT22;6979;52.116;5.286;2022-10-16T16:19:38;22.80;99.90
13817;DHT22;6979;52.116;5.286;2022-10-16T16:22:05;22.80;99.90
13817;DHT22;6979;52.116;5.286;2022-10-16T16:24:32;22.70;99.90
13817;DHT22;6979;52.116;5.286;2022-10-16T16:26:59;22.70;99.90
13817;DHT22;6979;52.116;5.286;2022-10-16T16:29:27;22.60;99.90
13817;DHT22;6979;52.116;5.286;2022-10-16T16:31:54;22.60;99.90
13817;DHT22;6979;52.116;5.286;2022-10-16T16:34:23;22.50;99.90
13817;DHT22;6979;52.116;5.286;2022-10-16T16:36:50;22.50;99.90
13817;DHT22;6979;52.116;5.286;2022-10-16T16:39:17;22.40;99.90
13817;DHT22;6979;52.116;5.286;2022-10-16T16:41:44;22.30;99.90
13817;DHT22;6979;52.116;5.286;2022-10-16T16:44:12;22.20;99.90
13817;DHT22;6979;52.116;5.286;2022-10-16T16:46:40;22.20;99.90
13817;DHT22;6979;52.116;5.286;2022-10-16T16:49:09;22.10;99.90
13817;DHT22;6979;52.116;5.286;2022-10-16T16:51:37;22.10;99.90
13817;DHT22;6979;52.116;5.286;2022-10-16T16:54:04;22.00;99.90
13817;DHT22;6979;52.116;5.286;2022-10-16T16:56:32;21.90;99.90
13817;DHT22;6979;52.116;5.286;2022-10-16T16:58:59;21.90;99.90
13817;DHT22;6979;52.116;5.286;2022-10-16T17:01:27;21.80;99.90
13817;DHT22;6979;52.116;5.286;2022-10-16T17:03:57;21.80;99.90
13817;DHT22;6979;52.116;5.286;2022-10-16T17:06:27;21.70;99.90
13817;DHT22;6979;52.116;5.286;2022-10-16T17:08:55;21.60;99.90
13817;DHT22;6979;52.116;5.286;2022-10-16T17:11:24;21.60;99.90
13817;DHT22;6979;52.116;5.286;2022-10-16T17:13:51;21.50;99.90
13817;DHT22;6979;52.116;5.286;2022-10-16T17:16:19;21.50;99.90
13817;DHT22;6979;52.116;5.286;2022-10-16T17:18:46;21.40;99.90
13817;DHT22;6979;52.116;5.286;2022-10-16T17:21:15;21.40;99.90
13817;DHT22;6979;52.116;5.286;2022-10-16T17:23:41;21.30;99.90
13817;DHT22;6979;52.116;5.286;2022-10-16T17:26:11;21.30;99.90
13817;DHT22;6979;52.116;5.286;2022-10-16T17:28:38;21.20;99.90
13817;DHT22;6979;52.116;5.286;2022-10-16T17:31:09;21.20;99.90
13817;DHT22;6979;52.116;5.286;2022-10-16T17:33:36;21.10;99.90
13817;DHT22;6979;52.116;5.286;2022-10-16T17:36:03;21.10;99.90
13817;DHT22;6979;52.116;5.286;2022-10-16T17:38:32;21.00;99.90
13817;DHT22;6979;52.116;5.286;2022-10-16T17:41:04;21.00;99.90
13817;DHT22;6979;52.116;5.286;2022-10-16T17:43:36;20.90;99.90
13817;DHT22;6979;52.116;5.286;2022-10-16T17:46:03;20.90;99.90
13817;DHT22;6979;52.116;5.286;2022-10-16T17:48:30;20.80;99.90
13817;DHT22;6979;52.116;5.286;2022-10-16T17:50:57;20.80;99.90
13817;DHT22;6979;52.116;5.286;2022-10-16T17:53:24;20.80;99.90